sensor_id;sensor_type;location;lat;lon;timestamp;P1;durP1;ratioP1;P2;durP2;ratioP2
72060;SDS011;59925;52.136;5.420;2023-11-22T00:00:13;13.35;;;6.35;;
72060;SDS011;59925;52.136;5.420;2023-11-22T00:02:40;12.87;;;6.70;;
72060;SDS011;59925;52.136;5.420;2023-11-22T00:05:06;14.35;;;5.78;;
72060;SDS011;59925;52.136;5.420;2023-11-22T00:07:33;12.82;;;6.40;;
72060;SDS011;59925;52.136;5.420;2023-11-22T00:10:00;11.50;;;6.28;;
72060;SDS011;59925;52.136;5.420;2023-11-22T00:12:27;11.68;;;6.05;;
72060;SDS011;59925;52.136;5.420;2023-11-22T00:14:54;12.33;;;6.53;;
72060;SDS011;59925;52.136;5.420;2023-11-22T00:17:20;13.63;;;6.47;;
72060;SDS011;59925;52.136;5.420;2023-11-22T00:19:48;11.38;;;6.25;;
72060;SDS011;59925;52.136;5.420;2023-11-22T00:22:14;14.75;;;7.10;;
72060;SDS011;59925;52.136;5.420;2023-11-22T00:24:41;16.52;;;7.40;;
72060;SDS011;59925;52.136;5.420;2023-11-22T00:27:08;12.33;;;6.37;;
72060;SDS011;59925;52.136;5.420;2023-11-22T00:29:36;12.02;;;5.97;;
72060;SDS011;59925;52.136;5.420;2023-11-22T00:32:03;11.70;;;5.53;;
72060;SDS011;59925;52.136;5.420;2023-11-22T00:34:31;11.90;;;5.93;;
72060;SDS011;59925;52.136;5.420;2023-11-22T00:36:57;13.68;;;6.60;;
72060;SDS011;59925;52.136;5.420;2023-11-22T00:39:24;12.40;;;6.43;;
72060;SDS011;59925;52.136;5.420;2023-11-22T00:41:50;13.77;;;5.72;;
72060;SDS011;59925;52.136;5.420;2023-11-22T00:44:17;12.90;;;6.22;;
72060;SDS011;59925;52.136;5.420;2023-11-22T00:46:44;13.75;;;6.93;;
72060;SDS011;59925;52.136;5.420;2023-11-22T00:49:12;12.73;;;6.28;;
72060;SDS011;59925;52.136;5.420;2023-11-22T00:51:39;11.93;;;6.43;;
72060;SDS011;59925;52.136;5.420;2023-11-22T00:54:06;11.82;;;6.07;;
72060;SDS011;59925;52.136;5.420;2023-11-22T00:56:32;13.00;;;6.72;;
72060;SDS011;59925;52.136;5.420;2023-11-22T00:58:59;13.13;;;6.07;;
72060;SDS011;59925;52.136;5.420;2023-11-22T01:01:26;12.45;;;6.43;;
72060;SDS011;59925;52.136;5.420;2023-11-22T01:03:52;11.93;;;6.03;;
72060;SDS011;59925;52.136;5.420;2023-11-22T01:06:19;15.40;;;7.38;;
72060;SDS011;59925;52.136;5.420;2023-11-22T01:08:46;12.00;;;6.38;;
72060;SDS011;59925;52.136;5.420;2023-11-22T01:11:14;14.50;;;6.25;;
72060;SDS011;59925;52.136;5.420;2023-11-22T01:13:40;14.13;;;6.30;;
72060;SDS011;59925;52.136;5.420;2023-11-22T01:16:09;14.40;;;6.30;;
72060;SDS011;59925;52.136;5.420;2023-11-22T01:18:36;13.32;;;6.10;;
72060;SDS011;59925;52.136;5.420;2023-11-22T01:21:05;13.30;;;5.75;;
72060;SDS011;59925;52.136;5.420;2023-11-22T01:23:32;14.50;;;6.47;;
72060;SDS011;59925;52.136;5.420;2023-11-22T01:25:58;11.95;;;5.82;;
72060;SDS011;59925;52.136;5.420;2023-11-22T01:28:26;11.67;;;5.73;;
72060;SDS011;59925;52.136;5.420;2023-11-22T01:31:00;14.00;;;6.40;;
72060;SDS011;59925;52.136;5.420;2023-11-22T01:33:30;14.90;;;6.63;;
72060;SDS011;59925;52.136;5.420;2023-11-22T01:35:58;12.15;;;6.32;;
72060;SDS011;59925;52.136;5.420;2023-11-22T01:38:25;13.57;;;5.93;;
72060;SDS011;59925;52.136;5.420;2023-11-22T01:40:51;13.60;;;6.17;;
72060;SDS011;59925;52.136;5.420;2023-11-22T01:43:18;12.75;;;6.53;;
72060;SDS011;59925;52.136;5.420;2023-11-22T01:45:46;13.18;;;5.82;;
72060;SDS011;59925;52.136;5.420;2023-11-22T01:48:12;13.05;;;6.43;;
72060;SDS011;59925;52.136;5.420;2023-11-22T01:50:39;11.00;;;6.07;;
72060;SDS011;59925;52.136;5.420;2023-11-22T01:53:07;13.00;;;6.60;;
72060;SDS011;59925;52.136;5.420;2023-11-22T01:55:36;14.48;;;6.50;;
72060;SDS011;59925;52.136;5.420;2023-11-22T01:58:06;13.18;;;6.80;;
72060;SDS011;59925;52.136;5.420;2023-11-22T02:00:35;17.88;;;7.30;;
72060;SDS011;59925;52.136;5.420;2023-11-22T02:03:08;13.40;;;6.97;;
72060;SDS011;59925;52.136;5.420;2023-11-22T02:05:35;16.37;;;7.20;;
72060;SDS011;59925;52.136;5.420;2023-11-22T02:08:01;11.68;;;6.65;;
72060;SDS011;59925;52.136;5.420;2023-11-22T02:10:28;16.10;;;6.78;;
72060;SDS011;59925;52.136;5.420;2023-11-22T02:12:55;13.82;;;6.82;;
72060;SDS011;59925;52.136;5.420;2023-11-22T02:15:22;15.40;;;7.38;;
72060;SDS011;59925;52.136;5.420;2023-11-22T02:17:48;18.00;;;6.63;;
72060;SDS011;59925;52.136;5.420;2023-11-22T02:20:17;14.13;;;6.55;;
72060;SDS011;59925;52.136;5.420;2023-11-22T02:22:44;16.20;;;7.07;;
72060;SDS011;59925;52.136;5.420;2023-11-22T02:25:12;14.88;;;6.90;;
72060;SDS011;59925;52.136;5.420;2023-11-22T02:27:39;13.23;;;6.75;;
72060;SDS011;59925;52.136;5.420;2023-11-22T02:30:06;12.80;;;6.17;;
72060;SDS011;59925;52.136;5.420;2023-11-22T02:32:33;15.75;;;6.18;;
72060;SDS011;59925;52.136;5.420;2023-11-22T02:34:59;12.70;;;6.47;;
72060;SDS011;59925;52.136;5.420;2023-11-22T02:37:27;11.90;;;5.97;;
72060;SDS011;59925;52.136;5.420;2023-11-22T02:40:09;11.20;;;5.88;;
72060;SDS011;59925;52.136;5.420;2023-11-22T02:42:45;13.30;;;5.80;;
72060;SDS011;59925;52.136;5.420;2023-11-22T02:45:18;13.10;;;5.95;;
72060;SDS011;59925;52.136;5.420;2023-11-22T02:47:50;11.95;;;5.82;;
72060;SDS011;59925;52.136;5.420;2023-11-22T02:50:18;11.95;;;5.78;;
72060;SDS011;59925;52.136;5.420;2023-11-22T02:52:45;10.25;;;5.18;;
72060;SDS011;59925;52.136;5.420;2023-11-22T02:55:12;10.73;;;5.60;;
72060;SDS011;59925;52.136;5.420;2023-11-22T02:57:38;13.98;;;5.60;;
72060;SDS011;59925;52.136;5.420;2023-11-22T03:00:08;10.98;;;5.13;;
72060;SDS011;59925;52.136;5.420;2023-11-22T03:02:36;11.68;;;5.43;;
72060;SDS011;59925;52.136;5.420;2023-11-22T03:05:03;90.75;;;6.45;;
72060;SDS011;59925;52.136;5.420;2023-11-22T03:07:30;111.10;;;7.17;;
72060;SDS011;59925;52.136;5.420;2023-11-22T03:09:57;49.53;;;5.15;;
72060;SDS011;59925;52.136;5.420;2023-11-22T03:12:26;13.50;;;4.15;;
72060;SDS011;59925;52.136;5.420;2023-11-22T03:14:53;8.80;;;4.25;;
72060;SDS011;59925;52.136;5.420;2023-11-22T03:17:24;7.32;;;3.83;;
72060;SDS011;59925;52.136;5.420;2023-11-22T03:19:51;9.27;;;4.10;;
72060;SDS011;59925;52.136;5.420;2023-11-22T03:22:18;8.13;;;3.78;;
72060;SDS011;59925;52.136;5.420;2023-11-22T03:24:44;7.45;;;3.67;;
72060;SDS011;59925;52.136;5.420;2023-11-22T03:27:11;10.13;;;3.63;;
72060;SDS011;59925;52.136;5.420;2023-11-22T03:29:37;8.52;;;3.75;;
72060;SDS011;59925;52.136;5.420;2023-11-22T03:32:04;8.20;;;4.00;;
72060;SDS011;59925;52.136;5.420;2023-11-22T03:34:31;6.65;;;3.65;;
72060;SDS011;59925;52.136;5.420;2023-11-22T03:36:57;10.32;;;4.40;;
72060;SDS011;59925;52.136;5.420;2023-11-22T03:39:24;9.10;;;5.00;;
72060;SDS011;59925;52.136;5.420;2023-11-22T03:41:51;9.68;;;4.40;;
72060;SDS011;59925;52.136;5.420;2023-11-22T03:44:17;9.17;;;4.73;;
72060;SDS011;59925;52.136;5.420;2023-11-22T03:46:44;10.38;;;5.10;;
72060;SDS011;59925;52.136;5.420;2023-11-22T03:49:11;10.75;;;4.93;;
72060;SDS011;59925;52.136;5.420;2023-11-22T03:51:38;11.45;;;5.13;;
72060;SDS011;59925;52.136;5.420;2023-11-22T03:54:05;13.13;;;5.88;;
72060;SDS011;59925;52.136;5.420;2023-11-22T03:56:32;17.17;;;6.43;;
72060;SDS011;59925;52.136;5.420;2023-11-22T03:58:59;12.25;;;5.90;;
72060;SDS011;59925;52.136;5.420;2023-11-22T04:01:26;12.50;;;6.07;;
72060;SDS011;59925;52.136;5.420;2023-11-22T04:03:53;10.43;;;5.80;;
72060;SDS011;59925;52.136;5.420;2023-11-22T04:06:20;11.18;;;5.70;;
72060;SDS011;59925;52.136;5.420;2023-11-22T04:08:47;9.83;;;5.10;;
72060;SDS011;59925;52.136;5.420;2023-11-22T04:11:14;12.05;;;5.70;;
72060;SDS011;59925;52.136;5.420;2023-11-22T04:13:41;11.82;;;5.50;;
72060;SDS011;59925;52.136;5.420;2023-11-22T04:16:08;12.07;;;5.80;;
72060;SDS011;59925;52.136;5.420;2023-11-22T04:18:41;10.43;;;5.30;;
72060;SDS011;59925;52.136;5.420;2023-11-22T04:21:08;11.27;;;5.47;;
72060;SDS011;59925;52.136;5.420;2023-11-22T04:23:35;12.63;;;5.88;;
72060;SDS011;59925;52.136;5.420;2023-11-22T04:26:02;13.18;;;6.15;;
72060;SDS011;59925;52.136;5.420;2023-11-22T04:28:30;13.48;;;6.05;;
72060;SDS011;59925;52.136;5.420;2023-11-22T04:30:56;12.88;;;6.03;;
72060;SDS011;59925;52.136;5.420;2023-11-22T04:33:24;11.97;;;5.87;;
72060;SDS011;59925;52.136;5.420;2023-11-22T04:35:51;11.45;;;5.45;;
72060;SDS011;59925;52.136;5.420;2023-11-22T04:38:17;13.23;;;6.72;;
72060;SDS011;59925;52.136;5.420;2023-11-22T04:40:44;17.45;;;6.57;;
72060;SDS011;59925;52.136;5.420;2023-11-22T04:43:11;11.30;;;5.88;;
72060;SDS011;59925;52.136;5.420;2023-11-22T04:45:38;15.87;;;5.87;;
72060;SDS011;59925;52.136;5.420;2023-11-22T04:48:05;10.30;;;5.20;;
72060;SDS011;59925;52.136;5.420;2023-11-22T04:50:33;13.38;;;5.55;;
72060;SDS011;59925;52.136;5.420;2023-11-22T04:53:00;12.80;;;6.53;;
72060;SDS011;59925;52.136;5.420;2023-11-22T04:55:28;11.20;;;5.57;;
72060;SDS011;59925;52.136;5.420;2023-11-22T04:57:54;11.77;;;5.47;;
72060;SDS011;59925;52.136;5.420;2023-11-22T05:00:21;9.82;;;4.60;;
72060;SDS011;59925;52.136;5.420;2023-11-22T05:02:49;13.82;;;6.35;;
72060;SDS011;59925;52.136;5.420;2023-11-22T05:05:15;11.38;;;5.47;;
72060;SDS011;59925;52.136;5.420;2023-11-22T05:07:42;10.75;;;5.32;;
72060;SDS011;59925;52.136;5.420;2023-11-22T05:10:10;10.47;;;5.27;;
72060;SDS011;59925;52.136;5.420;2023-11-22T05:12:38;12.50;;;5.13;;
72060;SDS011;59925;52.136;5.420;2023-11-22T05:15:05;12.18;;;5.57;;
72060;SDS011;59925;52.136;5.420;2023-11-22T05:17:34;15.20;;;5.50;;
72060;SDS011;59925;52.136;5.420;2023-11-22T05:20:02;15.65;;;6.00;;
72060;SDS011;59925;52.136;5.420;2023-11-22T05:22:28;14.60;;;6.10;;
72060;SDS011;59925;52.136;5.420;2023-11-22T05:24:55;14.43;;;6.40;;
72060;SDS011;59925;52.136;5.420;2023-11-22T05:27:22;12.95;;;6.00;;
72060;SDS011;59925;52.136;5.420;2023-11-22T05:29:49;13.80;;;5.85;;
72060;SDS011;59925;52.136;5.420;2023-11-22T05:32:21;11.75;;;5.18;;
72060;SDS011;59925;52.136;5.420;2023-11-22T05:34:47;11.07;;;5.57;;
72060;SDS011;59925;52.136;5.420;2023-11-22T05:37:14;13.40;;;5.35;;
72060;SDS011;59925;52.136;5.420;2023-11-22T05:39:41;13.15;;;5.22;;
72060;SDS011;59925;52.136;5.420;2023-11-22T05:42:07;12.15;;;5.30;;
72060;SDS011;59925;52.136;5.420;2023-11-22T05:44:34;13.70;;;5.57;;
72060;SDS011;59925;52.136;5.420;2023-11-22T05:47:00;10.20;;;5.40;;
72060;SDS011;59925;52.136;5.420;2023-11-22T05:49:27;12.23;;;5.32;;
72060;SDS011;59925;52.136;5.420;2023-11-22T05:51:54;10.70;;;5.38;;
72060;SDS011;59925;52.136;5.420;2023-11-22T05:54:21;11.07;;;5.18;;
72060;SDS011;59925;52.136;5.420;2023-11-22T05:56:47;11.25;;;5.40;;
72060;SDS011;59925;52.136;5.420;2023-11-22T05:59:14;12.60;;;6.43;;
72060;SDS011;59925;52.136;5.420;2023-11-22T06:01:41;13.63;;;5.70;;
72060;SDS011;59925;52.136;5.420;2023-11-22T06:04:08;14.07;;;5.88;;
72060;SDS011;59925;52.136;5.420;2023-11-22T06:06:36;13.88;;;6.50;;
72060;SDS011;59925;52.136;5.420;2023-11-22T06:09:16;12.32;;;5.82;;
72060;SDS011;59925;52.136;5.420;2023-11-22T06:11:47;16.93;;;7.37;;
72060;SDS011;59925;52.136;5.420;2023-11-22T06:14:13;15.68;;;6.85;;
72060;SDS011;59925;52.136;5.420;2023-11-22T06:16:40;14.80;;;6.90;;
72060;SDS011;59925;52.136;5.420;2023-11-22T06:19:07;14.85;;;6.38;;
72060;SDS011;59925;52.136;5.420;2023-11-22T06:21:33;11.68;;;6.35;;
72060;SDS011;59925;52.136;5.420;2023-11-22T06:24:15;16.73;;;7.17;;
72060;SDS011;59925;52.136;5.420;2023-11-22T06:26:55;14.55;;;7.00;;
72060;SDS011;59925;52.136;5.420;2023-11-22T06:29:22;13.80;;;6.60;;
72060;SDS011;59925;52.136;5.420;2023-11-22T06:31:49;14.20;;;6.30;;
72060;SDS011;59925;52.136;5.420;2023-11-22T06:34:15;14.57;;;6.70;;
72060;SDS011;59925;52.136;5.420;2023-11-22T06:36:42;14.03;;;5.97;;
72060;SDS011;59925;52.136;5.420;2023-11-22T06:39:09;14.25;;;6.93;;
72060;SDS011;59925;52.136;5.420;2023-11-22T06:41:36;18.02;;;7.18;;
72060;SDS011;59925;52.136;5.420;2023-11-22T06:44:03;15.18;;;7.22;;
72060;SDS011;59925;52.136;5.420;2023-11-22T06:46:29;13.80;;;6.32;;
72060;SDS011;59925;52.136;5.420;2023-11-22T06:48:56;14.23;;;6.40;;
72060;SDS011;59925;52.136;5.420;2023-11-22T06:51:23;15.30;;;7.13;;
72060;SDS011;59925;52.136;5.420;2023-11-22T06:53:50;15.48;;;6.10;;
72060;SDS011;59925;52.136;5.420;2023-11-22T06:56:18;16.00;;;7.55;;
72060;SDS011;59925;52.136;5.420;2023-11-22T06:58:44;16.45;;;7.30;;
72060;SDS011;59925;52.136;5.420;2023-11-22T07:01:11;15.00;;;6.67;;
72060;SDS011;59925;52.136;5.420;2023-11-22T07:03:41;15.75;;;6.65;;
72060;SDS011;59925;52.136;5.420;2023-11-22T07:06:08;15.43;;;6.53;;
72060;SDS011;59925;52.136;5.420;2023-11-22T07:08:34;16.83;;;7.40;;
72060;SDS011;59925;52.136;5.420;2023-11-22T07:11:01;15.05;;;7.47;;
72060;SDS011;59925;52.136;5.420;2023-11-22T07:13:29;15.87;;;6.90;;
72060;SDS011;59925;52.136;5.420;2023-11-22T07:15:56;15.57;;;6.75;;
72060;SDS011;59925;52.136;5.420;2023-11-22T07:18:25;17.02;;;7.32;;
72060;SDS011;59925;52.136;5.420;2023-11-22T07:20:57;16.70;;;8.13;;
72060;SDS011;59925;52.136;5.420;2023-11-22T07:23:28;16.83;;;7.53;;
72060;SDS011;59925;52.136;5.420;2023-11-22T07:25:55;19.43;;;7.30;;
72060;SDS011;59925;52.136;5.420;2023-11-22T07:28:22;19.27;;;7.75;;
72060;SDS011;59925;52.136;5.420;2023-11-22T07:30:49;18.15;;;7.20;;
72060;SDS011;59925;52.136;5.420;2023-11-22T07:33:18;16.55;;;7.78;;
72060;SDS011;59925;52.136;5.420;2023-11-22T07:35:46;17.60;;;7.95;;
72060;SDS011;59925;52.136;5.420;2023-11-22T07:38:13;18.33;;;7.97;;
72060;SDS011;59925;52.136;5.420;2023-11-22T07:40:40;16.88;;;7.75;;
72060;SDS011;59925;52.136;5.420;2023-11-22T07:43:07;16.08;;;7.85;;
72060;SDS011;59925;52.136;5.420;2023-11-22T07:45:35;19.38;;;8.10;;
72060;SDS011;59925;52.136;5.420;2023-11-22T07:48:04;18.70;;;7.80;;
72060;SDS011;59925;52.136;5.420;2023-11-22T07:50:30;16.63;;;8.20;;
72060;SDS011;59925;52.136;5.420;2023-11-22T07:52:57;19.35;;;8.35;;
72060;SDS011;59925;52.136;5.420;2023-11-22T07:55:23;16.05;;;7.75;;
72060;SDS011;59925;52.136;5.420;2023-11-22T07:57:50;16.50;;;7.70;;
72060;SDS011;59925;52.136;5.420;2023-11-22T08:00:17;17.48;;;8.10;;
72060;SDS011;59925;52.136;5.420;2023-11-22T08:02:46;23.20;;;7.97;;
72060;SDS011;59925;52.136;5.420;2023-11-22T08:05:13;16.30;;;7.75;;
72060;SDS011;59925;52.136;5.420;2023-11-22T08:07:41;15.98;;;6.53;;
72060;SDS011;59925;52.136;5.420;2023-11-22T08:10:12;15.15;;;6.70;;
72060;SDS011;59925;52.136;5.420;2023-11-22T08:12:45;15.68;;;7.82;;
72060;SDS011;59925;52.136;5.420;2023-11-22T08:15:14;14.07;;;7.03;;
72060;SDS011;59925;52.136;5.420;2023-11-22T08:17:40;19.73;;;8.13;;
72060;SDS011;59925;52.136;5.420;2023-11-22T08:20:08;15.45;;;6.85;;
72060;SDS011;59925;52.136;5.420;2023-11-22T08:22:41;17.77;;;7.68;;
72060;SDS011;59925;52.136;5.420;2023-11-22T08:25:08;20.85;;;8.55;;
72060;SDS011;59925;52.136;5.420;2023-11-22T08:27:35;16.63;;;7.53;;
72060;SDS011;59925;52.136;5.420;2023-11-22T08:30:01;19.95;;;8.52;;
72060;SDS011;59925;52.136;5.420;2023-11-22T08:32:31;15.30;;;7.07;;
72060;SDS011;59925;52.136;5.420;2023-11-22T08:34:58;19.88;;;8.77;;
72060;SDS011;59925;52.136;5.420;2023-11-22T08:37:24;17.02;;;8.13;;
72060;SDS011;59925;52.136;5.420;2023-11-22T08:39:51;17.27;;;7.33;;
72060;SDS011;59925;52.136;5.420;2023-11-22T08:42:17;21.33;;;8.70;;
72060;SDS011;59925;52.136;5.420;2023-11-22T08:44:44;18.00;;;9.18;;
72060;SDS011;59925;52.136;5.420;2023-11-22T08:47:11;19.63;;;8.95;;
72060;SDS011;59925;52.136;5.420;2023-11-22T08:49:39;18.42;;;8.65;;
72060;SDS011;59925;52.136;5.420;2023-11-22T08:52:06;21.03;;;8.80;;
72060;SDS011;59925;52.136;5.420;2023-11-22T08:54:33;19.45;;;9.23;;
72060;SDS011;59925;52.136;5.420;2023-11-22T08:57:01;17.08;;;8.38;;
72060;SDS011;59925;52.136;5.420;2023-11-22T08:59:28;17.52;;;8.20;;
72060;SDS011;59925;52.136;5.420;2023-11-22T09:01:55;18.88;;;8.98;;
72060;SDS011;59925;52.136;5.420;2023-11-22T09:04:22;18.93;;;8.23;;
72060;SDS011;59925;52.136;5.420;2023-11-22T09:06:50;19.80;;;8.25;;
72060;SDS011;59925;52.136;5.420;2023-11-22T09:09:17;18.75;;;8.32;;
72060;SDS011;59925;52.136;5.420;2023-11-22T09:11:43;18.95;;;9.18;;
72060;SDS011;59925;52.136;5.420;2023-11-22T09:14:10;16.38;;;8.63;;
72060;SDS011;59925;52.136;5.420;2023-11-22T09:16:37;19.53;;;9.30;;
72060;SDS011;59925;52.136;5.420;2023-11-22T09:19:05;16.45;;;8.93;;
72060;SDS011;59925;52.136;5.420;2023-11-22T09:21:34;20.85;;;8.98;;
72060;SDS011;59925;52.136;5.420;2023-11-22T09:24:01;18.58;;;8.30;;
72060;SDS011;59925;52.136;5.420;2023-11-22T09:26:49;17.83;;;8.65;;
72060;SDS011;59925;52.136;5.420;2023-11-22T09:29:15;19.93;;;8.20;;
72060;SDS011;59925;52.136;5.420;2023-11-22T09:31:42;19.75;;;8.43;;
72060;SDS011;59925;52.136;5.420;2023-11-22T09:34:09;17.25;;;8.32;;
72060;SDS011;59925;52.136;5.420;2023-11-22T09:36:35;17.77;;;8.98;;
72060;SDS011;59925;52.136;5.420;2023-11-22T09:39:04;20.00;;;8.27;;
72060;SDS011;59925;52.136;5.420;2023-11-22T09:41:37;16.27;;;8.57;;
72060;SDS011;59925;52.136;5.420;2023-11-22T09:44:05;17.48;;;7.88;;
72060;SDS011;59925;52.136;5.420;2023-11-22T09:46:32;17.80;;;8.52;;
72060;SDS011;59925;52.136;5.420;2023-11-22T09:49:00;16.15;;;7.78;;
72060;SDS011;59925;52.136;5.420;2023-11-22T09:51:32;17.15;;;8.23;;
72060;SDS011;59925;52.136;5.420;2023-11-22T09:54:03;19.30;;;9.07;;
72060;SDS011;59925;52.136;5.420;2023-11-22T09:56:33;16.30;;;7.70;;
72060;SDS011;59925;52.136;5.420;2023-11-22T09:59:00;18.17;;;8.35;;
72060;SDS011;59925;52.136;5.420;2023-11-22T10:01:29;18.45;;;8.73;;
72060;SDS011;59925;52.136;5.420;2023-11-22T10:03:59;17.25;;;8.35;;
72060;SDS011;59925;52.136;5.420;2023-11-22T10:06:27;15.93;;;7.87;;
72060;SDS011;59925;52.136;5.420;2023-11-22T10:08:57;16.17;;;8.27;;
72060;SDS011;59925;52.136;5.420;2023-11-22T10:11:23;17.42;;;8.70;;
72060;SDS011;59925;52.136;5.420;2023-11-22T10:13:51;19.63;;;8.73;;
72060;SDS011;59925;52.136;5.420;2023-11-22T10:16:18;21.15;;;9.38;;
72060;SDS011;59925;52.136;5.420;2023-11-22T10:18:46;21.63;;;9.23;;
72060;SDS011;59925;52.136;5.420;2023-11-22T10:21:24;17.15;;;8.98;;
72060;SDS011;59925;52.136;5.420;2023-11-22T10:24:10;17.73;;;9.23;;
72060;SDS011;59925;52.136;5.420;2023-11-22T10:26:36;22.20;;;9.77;;
72060;SDS011;59925;52.136;5.420;2023-11-22T10:29:03;20.85;;;9.55;;
72060;SDS011;59925;52.136;5.420;2023-11-22T10:31:30;21.73;;;9.23;;
72060;SDS011;59925;52.136;5.420;2023-11-22T10:33:56;15.60;;;8.15;;
72060;SDS011;59925;52.136;5.420;2023-11-22T10:36:24;17.25;;;8.38;;
72060;SDS011;59925;52.136;5.420;2023-11-22T10:38:51;17.00;;;8.73;;
72060;SDS011;59925;52.136;5.420;2023-11-22T10:41:20;16.52;;;8.55;;
72060;SDS011;59925;52.136;5.420;2023-11-22T10:43:48;21.87;;;8.93;;
72060;SDS011;59925;52.136;5.420;2023-11-22T10:46:17;17.80;;;9.45;;
72060;SDS011;59925;52.136;5.420;2023-11-22T10:48:45;16.83;;;8.60;;
72060;SDS011;59925;52.136;5.420;2023-11-22T10:51:13;15.13;;;7.82;;
72060;SDS011;59925;52.136;5.420;2023-11-22T10:53:43;15.25;;;8.20;;
72060;SDS011;59925;52.136;5.420;2023-11-22T10:56:16;13.73;;;7.47;;
72060;SDS011;59925;52.136;5.420;2023-11-22T10:58:47;14.05;;;7.78;;
72060;SDS011;59925;52.136;5.420;2023-11-22T11:01:18;17.08;;;8.80;;
72060;SDS011;59925;52.136;5.420;2023-11-22T11:04:09;16.13;;;8.45;;
72060;SDS011;59925;52.136;5.420;2023-11-22T11:06:54;14.23;;;7.40;;
72060;SDS011;59925;52.136;5.420;2023-11-22T11:09:24;16.83;;;8.40;;
72060;SDS011;59925;52.136;5.420;2023-11-22T11:11:56;15.68;;;8.27;;
72060;SDS011;59925;52.136;5.420;2023-11-22T11:14:23;15.82;;;8.38;;
72060;SDS011;59925;52.136;5.420;2023-11-22T11:16:51;17.23;;;7.93;;
72060;SDS011;59925;52.136;5.420;2023-11-22T11:19:20;17.10;;;9.02;;
72060;SDS011;59925;52.136;5.420;2023-11-22T11:21:48;15.40;;;8.13;;
72060;SDS011;59925;52.136;5.420;2023-11-22T11:24:15;13.50;;;7.57;;
72060;SDS011;59925;52.136;5.420;2023-11-22T11:26:47;15.23;;;8.10;;
72060;SDS011;59925;52.136;5.420;2023-11-22T11:29:32;16.50;;;8.70;;
72060;SDS011;59925;52.136;5.420;2023-11-22T11:32:02;16.25;;;8.45;;
72060;SDS011;59925;52.136;5.420;2023-11-22T11:34:30;14.73;;;8.13;;
72060;SDS011;59925;52.136;5.420;2023-11-22T11:37:05;15.48;;;8.15;;
72060;SDS011;59925;52.136;5.420;2023-11-22T11:39:32;14.25;;;7.88;;
72060;SDS011;59925;52.136;5.420;2023-11-22T11:42:09;14.38;;;7.88;;
72060;SDS011;59925;52.136;5.420;2023-11-22T11:47:28;14.53;;;8.13;;
72060;SDS011;59925;52.136;5.420;2023-11-22T11:49:56;15.50;;;7.18;;
72060;SDS011;59925;52.136;5.420;2023-11-22T11:52:24;12.60;;;7.50;;
72060;SDS011;59925;52.136;5.420;2023-11-22T11:54:56;15.80;;;8.07;;
72060;SDS011;59925;52.136;5.420;2023-11-22T11:57:46;12.70;;;7.15;;
72060;SDS011;59925;52.136;5.420;2023-11-22T12:00:18;16.10;;;8.07;;
72060;SDS011;59925;52.136;5.420;2023-11-22T12:02:59;12.63;;;7.00;;
72060;SDS011;59925;52.136;5.420;2023-11-22T12:05:26;16.35;;;8.27;;
72060;SDS011;59925;52.136;5.420;2023-11-22T12:07:54;15.07;;;8.68;;
72060;SDS011;59925;52.136;5.420;2023-11-22T12:10:25;15.32;;;8.00;;
72060;SDS011;59925;52.136;5.420;2023-11-22T12:12:53;12.90;;;7.33;;
72060;SDS011;59925;52.136;5.420;2023-11-22T12:15:20;12.68;;;7.13;;
72060;SDS011;59925;52.136;5.420;2023-11-22T12:17:50;14.80;;;7.68;;
72060;SDS011;59925;52.136;5.420;2023-11-22T12:20:18;12.60;;;7.18;;
72060;SDS011;59925;52.136;5.420;2023-11-22T12:22:47;12.68;;;6.88;;
72060;SDS011;59925;52.136;5.420;2023-11-22T12:25:15;13.93;;;6.80;;
72060;SDS011;59925;52.136;5.420;2023-11-22T12:27:44;14.18;;;8.02;;
72060;SDS011;59925;52.136;5.420;2023-11-22T12:30:28;13.05;;;7.13;;
72060;SDS011;59925;52.136;5.420;2023-11-22T12:33:12;12.70;;;6.75;;
72060;SDS011;59925;52.136;5.420;2023-11-22T12:35:53;13.85;;;7.68;;
72060;SDS011;59925;52.136;5.420;2023-11-22T12:38:45;14.13;;;7.50;;
72060;SDS011;59925;52.136;5.420;2023-11-22T12:41:16;14.63;;;7.80;;
72060;SDS011;59925;52.136;5.420;2023-11-22T12:44:00;16.00;;;8.48;;
72060;SDS011;59925;52.136;5.420;2023-11-22T12:46:51;15.88;;;7.90;;
72060;SDS011;59925;52.136;5.420;2023-11-22T12:49:29;15.27;;;8.23;;
72060;SDS011;59925;52.136;5.420;2023-11-22T12:51:59;16.73;;;8.80;;
72060;SDS011;59925;52.136;5.420;2023-11-22T12:54:31;14.35;;;8.30;;
72060;SDS011;59925;52.136;5.420;2023-11-22T12:56:59;15.27;;;7.75;;
72060;SDS011;59925;52.136;5.420;2023-11-22T12:59:33;18.73;;;9.25;;
72060;SDS011;59925;52.136;5.420;2023-11-22T13:02:00;17.10;;;8.95;;
72060;SDS011;59925;52.136;5.420;2023-11-22T13:04:29;16.47;;;8.93;;
72060;SDS011;59925;52.136;5.420;2023-11-22T13:07:01;19.00;;;9.35;;
72060;SDS011;59925;52.136;5.420;2023-11-22T13:09:31;15.27;;;9.02;;
72060;SDS011;59925;52.136;5.420;2023-11-22T13:11:59;16.42;;;8.45;;
72060;SDS011;59925;52.136;5.420;2023-11-22T13:14:37;20.30;;;9.77;;
72060;SDS011;59925;52.136;5.420;2023-11-22T13:17:05;17.80;;;9.20;;
72060;SDS011;59925;52.136;5.420;2023-11-22T13:19:35;15.88;;;8.38;;
72060;SDS011;59925;52.136;5.420;2023-11-22T13:24:53;17.77;;;8.35;;
72060;SDS011;59925;52.136;5.420;2023-11-22T13:27:24;16.20;;;8.77;;
72060;SDS011;59925;52.136;5.420;2023-11-22T13:29:52;17.50;;;8.90;;
72060;SDS011;59925;52.136;5.420;2023-11-22T13:32:19;16.38;;;8.68;;
72060;SDS011;59925;52.136;5.420;2023-11-22T13:34:46;16.77;;;8.55;;
72060;SDS011;59925;52.136;5.420;2023-11-22T13:37:12;16.88;;;8.73;;
72060;SDS011;59925;52.136;5.420;2023-11-22T13:39:42;16.95;;;8.98;;
72060;SDS011;59925;52.136;5.420;2023-11-22T13:42:09;19.27;;;9.37;;
72060;SDS011;59925;52.136;5.420;2023-11-22T13:44:35;16.15;;;8.02;;
72060;SDS011;59925;52.136;5.420;2023-11-22T13:47:02;15.40;;;8.98;;
72060;SDS011;59925;52.136;5.420;2023-11-22T13:49:30;16.67;;;8.23;;
72060;SDS011;59925;52.136;5.420;2023-11-22T13:51:59;14.65;;;8.30;;
72060;SDS011;59925;52.136;5.420;2023-11-22T13:54:25;16.00;;;9.27;;
72060;SDS011;59925;52.136;5.420;2023-11-22T13:56:52;13.30;;;7.65;;
72060;SDS011;59925;52.136;5.420;2023-11-22T13:59:19;16.25;;;8.80;;
72060;SDS011;59925;52.136;5.420;2023-11-22T14:01:46;16.40;;;8.88;;
72060;SDS011;59925;52.136;5.420;2023-11-22T14:04:14;17.23;;;9.27;;
72060;SDS011;59925;52.136;5.420;2023-11-22T14:06:40;16.00;;;8.30;;
72060;SDS011;59925;52.136;5.420;2023-11-22T14:09:08;17.42;;;9.00;;
72060;SDS011;59925;52.136;5.420;2023-11-22T14:11:36;15.73;;;8.65;;
72060;SDS011;59925;52.136;5.420;2023-11-22T14:14:03;18.27;;;9.55;;
72060;SDS011;59925;52.136;5.420;2023-11-22T14:16:30;14.82;;;8.90;;
72060;SDS011;59925;52.136;5.420;2023-11-22T14:18:57;18.93;;;9.77;;
72060;SDS011;59925;52.136;5.420;2023-11-22T14:21:24;19.10;;;10.38;;
72060;SDS011;59925;52.136;5.420;2023-11-22T14:23:51;18.60;;;10.27;;
72060;SDS011;59925;52.136;5.420;2023-11-22T14:26:21;18.42;;;10.18;;
72060;SDS011;59925;52.136;5.420;2023-11-22T14:28:49;21.42;;;10.05;;
72060;SDS011;59925;52.136;5.420;2023-11-22T14:31:16;21.33;;;11.17;;
72060;SDS011;59925;52.136;5.420;2023-11-22T14:33:42;20.75;;;10.38;;
72060;SDS011;59925;52.136;5.420;2023-11-22T14:36:09;20.52;;;11.13;;
72060;SDS011;59925;52.136;5.420;2023-11-22T14:38:36;21.25;;;11.93;;
72060;SDS011;59925;52.136;5.420;2023-11-22T14:41:04;21.08;;;10.98;;
72060;SDS011;59925;52.136;5.420;2023-11-22T14:43:31;21.30;;;10.73;;
72060;SDS011;59925;52.136;5.420;2023-11-22T14:45:57;22.65;;;11.38;;